Time;durP1;ratioP1;P1;durP2;ratioP2;P2;SDS_P1;SDS_P2;PMS_P1;PMS_P2;Temp;Humidity;BMP_temperature;BMP_pressure;BME280_temperature;BME280_humidity;BME280_pressure;Samples;Min_cycle;Max_cycle;Signal;HPM_P1;HPM_P2
2022/09/20 00:01:08;;;;;;;;;;;16.30;60.80;;;;;;5088933;28;19916;-89
2022/09/20 00:03:40;;;;;;;;;;;16.30;60.70;;;;;;5088821;28;19990;-93
2022/09/20 00:06:06;;;;;;;;;;;16.20;60.50;;;;;;5092511;28;20017;-92
2022/09/20 00:08:33;;;;;;;;;;;16.20;60.00;;;;;;5089155;28;19923;-88
2022/09/20 00:11:02;;;;;;;;;;;16.00;59.60;;;;;;5088577;28;19997;-92
2022/09/20 00:13:29;;;;;;;;;;;15.90;59.50;;;;;;5088944;28;19931;-92
2022/09/20 00:15:55;;;;;;;;;;;15.80;59.50;;;;;;5091109;28;19957;-92
2022/09/20 00:18:21;;;;;;;;;;;15.80;59.50;;;;;;5070274;28;19920;-87
2022/09/20 00:20:48;;;;;;;;;;;15.70;59.70;;;;;;5070242;28;19920;-86
2022/09/20 00:23:13;;;;;;;;;;;15.70;59.90;;;;;;5069419;28;19948;-89
2022/09/20 00:25:39;;;;;;;;;;;15.70;60.20;;;;;;5068082;28;19948;-93
2022/09/20 00:28:05;;;;;;;;;;;15.70;60.50;;;;;;5068281;28;20271;-90
2022/09/20 00:30:31;;;;;;;;;;;15.70;60.70;;;;;;5068406;28;20405;-93
2022/09/20 00:32:57;;;;;;;;;;;15.70;60.70;;;;;;5069911;28;19920;-86
2022/09/20 00:35:22;;;;;;;;;;;15.70;60.70;;;;;;5069695;28;19923;-92
2022/09/20 00:37:48;;;;;;;;;;;15.70;60.70;;;;;;5067852;28;20401;-86
2022/09/20 00:40:21;;;;;;;;;;;15.70;60.70;;;;;;5067806;28;19916;-90
2022/09/20 00:42:47;;;;;;;;;;;15.70;60.70;;;;;;5068273;28;19963;-89
2022/09/20 00:45:19;;;;;;;;;;;15.70;60.70;;;;;;5068908;28;19916;-86
2022/09/20 00:47:56;;;;;;;;;;;15.70;60.70;;;;;;5069277;28;20011;-92
2022/09/20 00:50:24;;;;;;;;;;;15.70;60.70;;;;;;5070509;28;19923;-92
2022/09/20 00:53:03;;;;;;;;;;;15.70;60.70;;;;;;5069676;28;19920;-87
2022/09/20 00:55:28;;;;;;;;;;;15.70;60.50;;;;;;5067781;28;20083;-89
2022/09/20 00:57:54;;;;;;;;;;;15.70;60.70;;;;;;5067514;28;20018;-91
2022/09/20 01:00:20;;;;;;;;;;;15.70;60.60;;;;;;5067043;28;19916;-86
2022/09/20 01:02:47;;;;;;;;;;;15.70;60.50;;;;;;5067923;28;19917;-91
2022/09/20 01:05:14;;;;;;;;;;;15.70;60.50;;;;;;5067616;28;19917;-88
2022/09/20 01:07:40;;;;;;;;;;;15.70;60.50;;;;;;5069919;28;19920;-87
2022/09/20 01:10:06;;;;;;;;;;;15.70;60.50;;;;;;5066797;28;19917;-87
2022/09/20 01:12:34;;;;;;;;;;;15.70;60.50;;;;;;5069039;28;19924;-89
2022/09/20 01:15:01;;;;;;;;;;;15.70;60.50;;;;;;5067804;28;19947;-89
2022/09/20 01:17:28;;;;;;;;;;;15.70;60.40;;;;;;5068874;28;19920;-85
2022/09/20 01:19:53;;;;;;;;;;;15.70;60.30;;;;;;5077616;28;20015;-87
2022/09/20 01:22:22;;;;;;;;;;;15.60;60.20;;;;;;5069687;28;20003;-90
2022/09/20 01:24:59;;;;;;;;;;;15.50;60.00;;;;;;5083700;28;19916;-89
2022/09/20 01:27:44;;;;;;;;;;;15.40;59.90;;;;;;5082830;28;19920;-90
2022/09/20 01:30:20;;;;;;;;;;;15.30;59.90;;;;;;5078980;28;20139;-85
2022/09/20 01:33:04;;;;;;;;;;;15.20;59.70;;;;;;5086782;28;19920;-93
2022/09/20 01:35:31;;;;;;;;;;;15.10;59.60;;;;;;5068158;28;20355;-86
2022/09/20 01:38:29;;;;;;;;;;;15.00;59.60;;;;;;5068675;28;20378;-86
2022/09/20 01:41:03;;;;;;;;;;;14.90;59.50;;;;;;5046498;28;19916;-87
2022/09/20 01:43:38;;;;;;;;;;;14.80;59.60;;;;;;5069824;28;19927;-88
2022/09/20 01:46:17;;;;;;;;;;;14.70;59.90;;;;;;5071091;28;19946;-89
2022/09/20 01:48:42;;;;;;;;;;;14.70;60.00;;;;;;5081468;28;20003;-88
2022/09/20 01:51:16;;;;;;;;;;;14.60;60.10;;;;;;5085891;28;20430;-88
2022/09/20 01:53:51;;;;;;;;;;;14.60;60.20;;;;;;5066672;28;19912;-88
2022/09/20 01:56:19;;;;;;;;;;;14.50;60.00;;;;;;5066541;28;20379;-88
2022/09/20 01:59:03;;;;;;;;;;;14.40;59.90;;;;;;5068467;28;19919;-92
2022/09/20 02:01:38;;;;;;;;;;;14.40;59.90;;;;;;5069850;28;19920;-88
2022/09/20 02:04:28;;;;;;;;;;;14.30;59.90;;;;;;5073771;28;19932;-92
2022/09/20 02:07:09;;;;;;;;;;;14.20;59.70;;;;;;5087777;28;20367;-93
2022/09/20 02:09:37;;;;;;;;;;;14.20;59.70;;;;;;5087882;28;19916;-92
2022/09/20 02:12:18;;;;;;;;;;;14.10;59.70;;;;;;5091786;28;19917;-88
2022/09/20 02:15:16;;;;;;;;;;;14.00;59.90;;;;;;5088388;28;20405;-87
2022/09/20 02:17:51;;;;;;;;;;;14.00;60.10;;;;;;5066187;28;20350;-89
2022/09/20 02:20:31;;;;;;;;;;;14.00;60.10;;;;;;5087696;28;19931;-87
2022/09/20 02:23:03;;;;;;;;;;;13.90;60.30;;;;;;5090650;28;19926;-93
2022/09/20 02:25:40;;;;;;;;;;;13.90;60.40;;;;;;5088142;28;20382;-90
2022/09/20 02:28:06;;;;;;;;;;;13.80;60.50;;;;;;5088112;28;19920;-90
2022/09/20 02:30:41;;;;;;;;;;;13.80;60.40;;;;;;5083780;28;20313;-87
2022/09/20 02:33:21;;;;;;;;;;;13.80;60.40;;;;;;5079203;28;20056;-92
2022/09/20 02:35:59;;;;;;;;;;;13.80;60.60;;;;;;5086363;28;20302;-91
2022/09/20 02:38:43;;;;;;;;;;;13.80;60.60;;;;;;5068303;28;19919;-86
2022/09/20 02:41:18;;;;;;;;;;;13.80;60.80;;;;;;5067146;28;20367;-90
2022/09/20 02:43:43;;;;;;;;;;;13.80;61.00;;;;;;5065878;28;19927;-85
2022/09/20 02:46:09;;;;;;;;;;;13.80;61.20;;;;;;5065898;28;20337;-89
2022/09/20 02:48:43;;;;;;;;;;;13.80;61.10;;;;;;5066771;28;19912;-91
2022/09/20 02:51:19;;;;;;;;;;;13.80;61.10;;;;;;5067422;28;19927;-92
2022/09/20 02:53:58;;;;;;;;;;;13.80;61.10;;;;;;5068963;28;19920;-89
2022/09/20 02:56:36;;;;;;;;;;;13.80;61.10;;;;;;5069467;28;19920;-89
2022/09/20 02:59:04;;;;;;;;;;;13.80;61.00;;;;;;5070898;28;19966;-86
2022/09/20 03:01:34;;;;;;;;;;;13.80;60.80;;;;;;5071313;28;20287;-90
2022/09/20 03:03:59;;;;;;;;;;;13.80;60.50;;;;;;5071717;28;19941;-90
2022/09/20 03:06:30;;;;;;;;;;;13.80;60.50;;;;;;5071536;28;19920;-89
2022/09/20 03:09:02;;;;;;;;;;;13.70;60.40;;;;;;5069787;28;19920;-88
2022/09/20 03:11:27;;;;;;;;;;;13.70;60.30;;;;;;5071431;28;19920;-86
2022/09/20 03:14:09;;;;;;;;;;;13.60;60.30;;;;;;5069276;28;19918;-87
2022/09/20 03:16:44;;;;;;;;;;;13.60;60.40;;;;;;5071002;28;19924;-88
2022/09/20 03:19:10;;;;;;;;;;;13.60;60.80;;;;;;5070244;28;19916;-92
2022/09/20 03:21:49;;;;;;;;;;;13.60;60.90;;;;;;5082378;28;19924;-90
2022/09/20 03:24:20;;;;;;;;;;;13.60;60.90;;;;;;5086975;28;20242;-93
2022/09/20 03:26:55;;;;;;;;;;;13.60;60.80;;;;;;5085517;28;20310;-89
2022/09/20 03:29:30;;;;;;;;;;;13.60;60.60;;;;;;5068987;28;20560;-87
2022/09/20 03:32:14;;;;;;;;;;;13.50;60.40;;;;;;5069925;28;20279;-89
2022/09/20 03:34:40;;;;;;;;;;;13.50;60.30;;;;;;5070839;28;20406;-87
2022/09/20 03:37:13;;;;;;;;;;;13.50;60.30;;;;;;5070830;28;20292;-92
2022/09/20 03:39:47;;;;;;;;;;;13.40;60.30;;;;;;5079886;28;19919;-92
2022/09/20 03:42:21;;;;;;;;;;;13.40;60.40;;;;;;5069656;28;19920;-92
2022/09/20 03:45:12;;;;;;;;;;;13.40;60.40;;;;;;5071623;28;19924;-87
2022/09/20 03:48:12;;;;;;;;;;;13.40;60.40;;;;;;5071530;28;19924;-92
2022/09/20 03:50:50;;;;;;;;;;;13.40;60.40;;;;;;5031479;28;19913;-91
2022/09/20 03:53:28;;;;;;;;;;;13.30;60.40;;;;;;5080188;28;19935;-86
2022/09/20 03:56:08;;;;;;;;;;;13.30;60.40;;;;;;5070784;28;19919;-93
2022/09/20 03:58:58;;;;;;;;;;;13.40;60.70;;;;;;5070093;28;20238;-93
2022/09/20 04:01:44;;;;;;;;;;;13.40;60.70;;;;;;5084053;28;20390;-92
2022/09/20 04:04:24;;;;;;;;;;;13.50;60.80;;;;;;5090310;28;19920;-86
2022/09/20 04:07:03;;;;;;;;;;;13.50;61.10;;;;;;5074441;28;19927;-92
2022/09/20 04:09:46;;;;;;;;;;;13.70;61.30;;;;;;5067955;28;19936;-89
2022/09/20 04:12:11;;;;;;;;;;;13.80;61.50;;;;;;5070349;28;19939;-89
2022/09/20 04:14:42;;;;;;;;;;;13.90;61.70;;;;;;5068443;28;19916;-89
2022/09/20 04:17:17;;;;;;;;;;;14.00;61.90;;;;;;5070145;28;19925;-92
2022/09/20 04:19:46;;;;;;;;;;;14.10;61.90;;;;;;5068588;28;19920;-89
2022/09/20 04:22:12;;;;;;;;;;;14.20;62.10;;;;;;5051808;28;19925;-86
2022/09/20 04:24:47;;;;;;;;;;;14.30;62.10;;;;;;5069918;28;19920;-92
2022/09/20 04:27:30;;;;;;;;;;;14.40;62.00;;;;;;5070199;28;19920;-86
2022/09/20 04:30:00;;;;;;;;;;;14.40;61.90;;;;;;5069767;28;20321;-92
2022/09/20 04:32:41;;;;;;;;;;;14.40;61.80;;;;;;5068474;28;19998;-92
2022/09/20 04:38:11;;;;;;;;;;;14.40;61.60;;;;;;5069783;28;20290;-86
2022/09/20 04:40:55;;;;;;;;;;;14.40;61.60;;;;;;5067464;28;19913;-85
2022/09/20 04:43:40;;;;;;;;;;;14.50;61.60;;;;;;5069660;28;20339;-91
2022/09/20 04:46:05;;;;;;;;;;;14.50;61.70;;;;;;5069229;28;20341;-86
2022/09/20 04:48:39;;;;;;;;;;;14.50;61.80;;;;;;5071608;28;19920;-91
2022/09/20 04:51:23;;;;;;;;;;;14.60;61.80;;;;;;5069192;28;20318;-90
2022/09/20 04:54:01;;;;;;;;;;;14.70;61.80;;;;;;5078463;28;19916;-85
2022/09/20 04:56:38;;;;;;;;;;;14.70;61.80;;;;;;5089774;28;20452;-89
2022/09/20 04:59:05;;;;;;;;;;;14.80;61.90;;;;;;5087633;28;20200;-91
2022/09/20 05:01:46;;;;;;;;;;;14.80;61.90;;;;;;5088857;28;19959;-87
2022/09/20 05:04:35;;;;;;;;;;;14.90;61.90;;;;;;5089345;28;19930;-88
2022/09/20 05:07:20;;;;;;;;;;;14.90;61.80;;;;;;5070698;28;19966;-86
2022/09/20 05:09:45;;;;;;;;;;;15.00;61.80;;;;;;5067184;28;19912;-86
2022/09/20 05:12:17;;;;;;;;;;;14.90;61.70;;;;;;5066668;28;19927;-87
2022/09/20 05:15:04;;;;;;;;;;;15.00;61.60;;;;;;5067248;28;20381;-87
2022/09/20 05:17:33;;;;;;;;;;;15.00;61.40;;;;;;5066458;28;20074;-87
2022/09/20 05:20:17;;;;;;;;;;;15.00;61.30;;;;;;5068423;28;19939;-92
2022/09/20 05:22:46;;;;;;;;;;;15.00;61.10;;;;;;5067094;28;20292;-89
2022/09/20 05:25:14;;;;;;;;;;;14.90;61.00;;;;;;5067185;28;19969;-87
2022/09/20 05:27:53;;;;;;;;;;;14.90;60.90;;;;;;5069045;28;20465;-93
2022/09/20 05:30:18;;;;;;;;;;;14.80;60.80;;;;;;5067913;28;19912;-91
2022/09/20 05:32:47;;;;;;;;;;;14.80;60.90;;;;;;5069937;28;20410;-86
2022/09/20 05:35:12;;;;;;;;;;;14.80;60.90;;;;;;5068584;28;20434;-88
2022/09/20 05:37:44;;;;;;;;;;;14.80;61.00;;;;;;5067224;28;20018;-93
2022/09/20 05:40:17;;;;;;;;;;;14.70;61.10;;;;;;5069556;28;20024;-88
2022/09/20 05:42:46;;;;;;;;;;;14.80;61.30;;;;;;5075639;28;20355;-86
2022/09/20 05:45:20;;;;;;;;;;;14.80;61.50;;;;;;5089003;28;20052;-86
2022/09/20 05:48:04;;;;;;;;;;;14.90;61.80;;;;;;5069069;28;20350;-86
2022/09/20 05:50:38;;;;;;;;;;;15.00;62.10;;;;;;5088767;28;19912;-91
2022/09/20 05:53:23;;;;;;;;;;;15.10;62.30;;;;;;5075610;28;19925;-90
2022/09/20 05:55:58;;;;;;;;;;;15.20;62.50;;;;;;5085633;28;19927;-92
2022/09/20 05:58:26;;;;;;;;;;;15.30;62.70;;;;;;5083375;28;20271;-88
2022/09/20 06:00:55;;;;;;;;;;;15.50;62.70;;;;;;5067224;28;19913;-92
2022/09/20 06:03:26;;;;;;;;;;;15.70;62.70;;;;;;5068733;28;20425;-86
2022/09/20 06:06:05;;;;;;;;;;;15.80;62.70;;;;;;5066589;28;19956;-86
2022/09/20 06:08:44;;;;;;;;;;;16.00;62.60;;;;;;5069205;28;19920;-92
2022/09/20 06:11:38;;;;;;;;;;;16.10;62.50;;;;;;5077933;28;19927;-92
2022/09/20 06:14:14;;;;;;;;;;;16.30;62.40;;;;;;5086801;28;20275;-87
2022/09/20 06:16:43;;;;;;;;;;;16.30;62.40;;;;;;5087942;28;20445;-92
2022/09/20 06:19:18;;;;;;;;;;;16.50;62.30;;;;;;5089282;28;20472;-86
2022/09/20 06:21:57;;;;;;;;;;;16.60;62.10;;;;;;5087672;28;19924;-87
2022/09/20 06:24:31;;;;;;;;;;;16.70;62.00;;;;;;5087421;28;20371;-88
2022/09/20 06:26:58;;;;;;;;;;;16.70;61.90;;;;;;5087136;28;19955;-86
2022/09/20 06:29:32;;;;;;;;;;;16.80;61.90;;;;;;5089040;28;19925;-89
2022/09/20 06:31:58;;;;;;;;;;;16.90;61.90;;;;;;5084744;28;19920;-87
2022/09/20 06:34:25;;;;;;;;;;;17.00;61.70;;;;;;5075845;28;19969;-90
2022/09/20 06:42:46;;;;;;;;;;;17.20;61.70;;;;;;5083021;28;19927;-90
2022/09/20 06:45:12;;;;;;;;;;;17.20;61.90;;;;;;5087287;28;19924;-86
2022/09/20 06:47:38;;;;;;;;;;;17.20;62.00;;;;;;5077837;28;19931;-85
2022/09/20 06:50:05;;;;;;;;;;;17.20;61.90;;;;;;5077067;28;20325;-90
2022/09/20 06:52:30;;;;;;;;;;;17.20;62.20;;;;;;5071009;28;19931;-91
2022/09/20 06:54:56;;;;;;;;;;;17.20;62.50;;;;;;5090137;28;20005;-85
2022/09/20 06:57:37;;;;;;;;;;;17.20;63.20;;;;;;5089728;28;19920;-90
2022/09/20 07:00:04;;;;;;;;;;;17.20;63.50;;;;;;5075590;28;19920;-84
2022/09/20 07:02:29;;;;;;;;;;;17.20;63.80;;;;;;5085993;28;19936;-87
2022/09/20 07:04:56;;;;;;;;;;;17.20;64.00;;;;;;5086628;28;19924;-87
2022/09/20 07:07:22;;;;;;;;;;;17.20;64.10;;;;;;5085443;28;20014;-89
2022/09/20 07:09:47;;;;;;;;;;;17.30;64.30;;;;;;5069422;28;20007;-84
2022/09/20 07:12:12;;;;;;;;;;;17.40;64.50;;;;;;5076098;28;20649;-85
2022/09/20 07:14:38;;;;;;;;;;;17.50;64.70;;;;;;5089933;28;20280;-86
2022/09/20 07:17:05;;;;;;;;;;;17.60;64.60;;;;;;5090859;28;20010;-87
2022/09/20 07:19:30;;;;;;;;;;;17.70;64.70;;;;;;5091331;28;19958;-85
2022/09/20 07:21:56;;;;;;;;;;;17.80;64.80;;;;;;5091852;28;19951;-89
2022/09/20 07:24:22;;;;;;;;;;;18.00;64.80;;;;;;5085563;28;20008;-85
2022/09/20 07:26:57;;;;;;;;;;;18.10;64.70;;;;;;5070088;28;19977;-87
2022/09/20 07:29:22;;;;;;;;;;;18.20;64.60;;;;;;5073118;28;19923;-88
2022/09/20 07:31:49;;;;;;;;;;;18.30;64.50;;;;;;5071200;28;19920;-84
2022/09/20 07:34:16;;;;;;;;;;;18.30;64.00;;;;;;5070626;28;20359;-88
2022/09/20 07:36:41;;;;;;;;;;;18.40;64.10;;;;;;5070926;28;19920;-89
2022/09/20 07:39:07;;;;;;;;;;;18.40;64.00;;;;;;5070357;28;19916;-88
2022/09/20 07:41:32;;;;;;;;;;;18.50;63.90;;;;;;5069741;28;20398;-84
2022/09/20 07:44:19;;;;;;;;;;;18.50;64.10;;;;;;5070884;28;20229;-88
2022/09/20 07:46:47;;;;;;;;;;;18.60;64.20;;;;;;5070367;28;20398;-86
2022/09/20 07:49:12;;;;;;;;;;;18.70;64.20;;;;;;5068679;28;20631;-89
2022/09/20 07:51:37;;;;;;;;;;;18.80;64.20;;;;;;5069439;28;19916;-87
2022/09/20 07:54:03;;;;;;;;;;;18.90;63.90;;;;;;5070092;28;19916;-89
2022/09/20 07:56:28;;;;;;;;;;;19.00;64.10;;;;;;5069355;28;19900;-86
2022/09/20 07:58:54;;;;;;;;;;;19.10;64.00;;;;;;5071863;28;19916;-89
2022/09/20 08:01:20;;;;;;;;;;;19.20;64.30;;;;;;5080391;28;19951;-90
2022/09/20 08:03:46;;;;;;;;;;;19.50;64.40;;;;;;5072555;28;19963;-86
2022/09/20 08:06:15;;;;;;;;;;;19.60;64.40;;;;;;5089851;28;20345;-85
2022/09/20 08:08:41;;;;;;;;;;;19.80;64.00;;;;;;5088494;28;19916;-87
2022/09/20 08:11:08;;;;;;;;;;;19.90;64.00;;;;;;5093699;28;20416;-87
2022/09/20 08:13:37;;;;;;;;;;;20.00;63.90;;;;;;5089184;28;19916;-89
2022/09/20 08:16:04;;;;;;;;;;;20.00;64.00;;;;;;5088463;28;19916;-90
2022/09/20 08:18:30;;;;;;;;;;;20.20;64.20;;;;;;5088458;28;20008;-86
2022/09/20 08:20:55;;;;;;;;;;;20.30;64.30;;;;;;5090194;28;20027;-88
2022/09/20 08:23:21;;;;;;;;;;;20.50;64.40;;;;;;5089742;28;20145;-89
2022/09/20 08:25:47;;;;;;;;;;;20.70;64.40;;;;;;5088207;28;19912;-90
2022/09/20 08:28:12;;;;;;;;;;;20.80;64.10;;;;;;5089025;28;20330;-90
2022/09/20 08:30:38;;;;;;;;;;;20.90;63.80;;;;;;5088852;28;19911;-88
2022/09/20 08:33:05;;;;;;;;;;;21.00;63.70;;;;;;5090380;28;20259;-87
2022/09/20 08:35:33;;;;;;;;;;;21.20;63.80;;;;;;5089951;28;19939;-88
2022/09/20 08:37:59;;;;;;;;;;;21.30;63.90;;;;;;5088651;28;19967;-87
2022/09/20 08:40:24;;;;;;;;;;;21.40;63.90;;;;;;5083843;28;19951;-90
2022/09/20 08:42:53;;;;;;;;;;;21.60;63.90;;;;;;5068193;28;19916;-90
2022/09/20 08:45:21;;;;;;;;;;;21.60;63.60;;;;;;5068600;28;19924;-88
2022/09/20 08:47:55;;;;;;;;;;;21.80;63.50;;;;;;5070758;28;19963;-91
2022/09/20 08:50:21;;;;;;;;;;;21.90;63.40;;;;;;5077115;28;19917;-89
2022/09/20 08:52:48;;;;;;;;;;;22.00;63.70;;;;;;5071665;28;19920;-92
2022/09/20 08:55:18;;;;;;;;;;;22.20;63.60;;;;;;5070391;28;19962;-90
2022/09/20 08:57:55;;;;;;;;;;;22.30;63.50;;;;;;5070920;28;19990;-87
2022/09/20 09:00:22;;;;;;;;;;;22.40;63.30;;;;;;5069543;28;19919;-89
2022/09/20 09:02:49;;;;;;;;;;;22.50;63.80;;;;;;5088158;28;19920;-86
2022/09/20 09:05:27;;;;;;;;;;;22.70;65.20;;;;;;5090736;28;19931;-90
2022/09/20 09:07:52;;;;;;;;;;;23.10;65.30;;;;;;5090933;28;19916;-85
2022/09/20 09:10:18;;;;;;;;;;;23.60;65.40;;;;;;5088881;28;19912;-89
2022/09/20 09:12:45;;;;;;;;;;;24.10;66.00;;;;;;5087351;28;19927;-87
2022/09/20 09:15:31;;;;;;;;;;;24.70;65.60;;;;;;5087636;28;19916;-88
2022/09/20 09:17:57;;;;;;;;;;;25.40;65.50;;;;;;5087312;28;19916;-86
2022/09/20 09:20:23;;;;;;;;;;;26.10;64.80;;;;;;5089110;28;19927;-88
2022/09/20 09:22:58;;;;;;;;;;;26.60;63.80;;;;;;5090249;28;20366;-89
2022/09/20 09:25:33;;;;;;;;;;;27.10;61.70;;;;;;5087779;28;20405;-89
2022/09/20 09:27:59;;;;;;;;;;;27.50;62.30;;;;;;5092857;28;19916;-89
2022/09/20 09:30:41;;;;;;;;;;;27.80;62.10;;;;;;5088046;28;19912;-88
2022/09/20 09:33:15;;;;;;;;;;;28.20;61.70;;;;;;5088720;28;20382;-88
2022/09/20 09:35:41;;;;;;;;;;;28.40;60.80;;;;;;5089338;28;19912;-89
2022/09/20 09:38:15;;;;;;;;;;;28.40;60.20;;;;;;5089043;28;19968;-86
2022/09/20 09:40:48;;;;;;;;;;;28.50;60.40;;;;;;5078242;28;19960;-91
2022/09/20 09:43:18;;;;;;;;;;;28.50;60.70;;;;;;5068533;28;19909;-89
2022/09/20 09:45:44;;;;;;;;;;;28.50;60.30;;;;;;5073147;28;19920;-87
2022/09/20 09:48:21;;;;;;;;;;;28.60;60.60;;;;;;5068168;28;19913;-85
2022/09/20 09:50:47;;;;;;;;;;;29.00;61.10;;;;;;5068367;28;20401;-89
2022/09/20 09:53:14;;;;;;;;;;;29.50;58.10;;;;;;5067444;28;20423;-87
2022/09/20 09:55:54;;;;;;;;;;;30.00;56.70;;;;;;5071322;28;20049;-90
2022/09/20 09:58:29;;;;;;;;;;;30.30;53.50;;;;;;5067361;28;20053;-86
2022/09/20 10:01:00;;;;;;;;;;;30.30;53.30;;;;;;5076367;28;19989;-88
2022/09/20 10:03:28;;;;;;;;;;;30.20;49.80;;;;;;5090287;28;19969;-88
2022/09/20 10:06:00;;;;;;;;;;;30.10;48.40;;;;;;5095160;28;19971;-86
2022/09/20 10:08:29;;;;;;;;;;;30.10;47.80;;;;;;5094234;28;19920;-92
2022/09/20 10:10:58;;;;;;;;;;;29.80;43.70;;;;;;5093846;28;19912;-87
2022/09/20 10:13:34;;;;;;;;;;;29.60;43.00;;;;;;5092467;28;19924;-94
2022/09/20 10:16:10;;;;;;;;;;;29.50;42.20;;;;;;5094592;28;19916;-91
2022/09/20 10:18:45;;;;;;;;;;;29.30;42.10;;;;;;5098431;28;19920;-92
2022/09/20 10:21:24;;;;;;;;;;;28.70;40.80;;;;;;5096876;28;19916;-88
2022/09/20 10:24:04;;;;;;;;;;;28.00;42.80;;;;;;5092108;28;20057;-92
2022/09/20 10:26:32;;;;;;;;;;;27.50;44.50;;;;;;5095621;28;20370;-86
2022/09/20 10:29:15;;;;;;;;;;;26.60;45.90;;;;;;5093080;28;19977;-90
2022/09/20 10:31:51;;;;;;;;;;;25.70;49.70;;;;;;5092886;28;19912;-86
2022/09/20 10:34:35;;;;;;;;;;;24.80;51.90;;;;;;5090395;28;20478;-88
2022/09/20 10:37:01;;;;;;;;;;;24.20;53.30;;;;;;5092350;28;20591;-88
2022/09/20 10:39:26;;;;;;;;;;;23.50;53.60;;;;;;5092533;28;19928;-88
2022/09/20 10:44:53;;;;;;;;;;;21.70;55.00;;;;;;5072038;28;19936;-89
2022/09/20 10:47:23;;;;;;;;;;;21.20;57.40;;;;;;5071328;28;19912;-86
2022/09/20 10:49:55;;;;;;;;;;;20.80;58.20;;;;;;5070132;28;19920;-87
2022/09/20 10:52:27;;;;;;;;;;;20.50;58.80;;;;;;5071038;28;19927;-88
2022/09/20 10:55:03;;;;;;;;;;;20.30;59.30;;;;;;5071133;28;19973;-89
2022/09/20 10:57:31;;;;;;;;;;;20.10;60.50;;;;;;5071659;28;19912;-85
2022/09/20 11:00:00;;;;;;;;;;;20.10;61.50;;;;;;5069777;28;19935;-89
2022/09/20 11:02:45;;;;;;;;;;;20.10;62.10;;;;;;5091657;28;19969;-90
2022/09/20 11:05:17;;;;;;;;;;;20.10;62.80;;;;;;5091272;28;20001;-88
2022/09/20 11:07:51;;;;;;;;;;;20.20;63.40;;;;;;5091362;28;19912;-86
2022/09/20 11:10:27;;;;;;;;;;;20.50;63.90;;;;;;5092259;28;20136;-88
2022/09/20 11:13:06;;;;;;;;;;;20.80;64.50;;;;;;5091464;28;19912;-85
2022/09/20 11:15:34;;;;;;;;;;;21.10;64.70;;;;;;5091555;28;19951;-86
2022/09/20 11:18:22;;;;;;;;;;;21.60;65.20;;;;;;5089728;28;19931;-91
2022/09/20 11:21:10;;;;;;;;;;;22.10;64.70;;;;;;5091434;28;20564;-87
2022/09/20 11:23:38;;;;;;;;;;;22.50;64.10;;;;;;5091412;28;19935;-87
2022/09/20 11:26:07;;;;;;;;;;;22.80;63.90;;;;;;5091951;28;19912;-86
2022/09/20 11:28:36;;;;;;;;;;;23.20;63.90;;;;;;5090405;28;19962;-87
2022/09/20 11:31:06;;;;;;;;;;;23.50;63.70;;;;;;5090069;28;19923;-88
2022/09/20 11:33:38;;;;;;;;;;;24.20;64.00;;;;;;5091000;28;20401;-86
2022/09/20 11:36:08;;;;;;;;;;;24.90;63.30;;;;;;5091439;28;20003;-87
2022/09/20 11:38:39;;;;;;;;;;;25.70;62.90;;;;;;5091161;28;20302;-86
2022/09/20 11:41:10;;;;;;;;;;;26.10;61.40;;;;;;5078104;28;19918;-86
2022/09/20 11:43:37;;;;;;;;;;;26.30;60.70;;;;;;5069219;28;19950;-89
2022/09/20 11:46:05;;;;;;;;;;;26.50;60.50;;;;;;5072176;28;19924;-88
2022/09/20 11:48:34;;;;;;;;;;;26.50;59.90;;;;;;5071252;28;19912;-89
2022/09/20 11:51:10;;;;;;;;;;;26.60;59.90;;;;;;5069255;28;20275;-91
2022/09/20 11:53:35;;;;;;;;;;;26.70;59.80;;;;;;5071765;28;19916;-91
2022/09/20 11:56:07;;;;;;;;;;;26.90;60.00;;;;;;5069816;28;19912;-88
2022/09/20 11:58:43;;;;;;;;;;;27.20;59.40;;;;;;5068938;28;19966;-86
2022/09/20 12:01:11;;;;;;;;;;;27.30;58.40;;;;;;5077414;28;19916;-86
2022/09/20 12:03:38;;;;;;;;;;;27.20;58.00;;;;;;5090688;28;19920;-92
2022/09/20 12:06:19;;;;;;;;;;;27.00;57.90;;;;;;5090905;28;19962;-87
2022/09/20 12:08:48;;;;;;;;;;;26.80;57.70;;;;;;5088223;28;19916;-87
2022/09/20 12:11:15;;;;;;;;;;;26.60;57.50;;;;;;5089181;28;20074;-88
2022/09/20 12:13:41;;;;;;;;;;;26.30;57.90;;;;;;5089716;28;19916;-87
2022/09/20 12:16:33;;;;;;;;;;;26.20;58.00;;;;;;5091095;28;20710;-91
2022/09/20 12:19:00;;;;;;;;;;;26.50;57.90;;;;;;5088838;28;19962;-88
2022/09/20 12:21:27;;;;;;;;;;;26.80;57.70;;;;;;5089879;28;19924;-87
2022/09/20 12:23:52;;;;;;;;;;;27.20;57.80;;;;;;5091791;28;20184;-89
2022/09/20 12:26:21;;;;;;;;;;;27.80;56.90;;;;;;5089190;28;19920;-89
2022/09/20 12:28:49;;;;;;;;;;;27.90;56.50;;;;;;5088102;28;19912;-90
2022/09/20 12:31:21;;;;;;;;;;;27.60;55.90;;;;;;5090752;28;20375;-92
2022/09/20 12:34:08;;;;;;;;;;;27.30;56.70;;;;;;5071528;28;19962;-88
2022/09/20 12:36:35;;;;;;;;;;;27.30;57.10;;;;;;5089919;28;19927;-89
2022/09/20 12:39:09;;;;;;;;;;;27.20;57.60;;;;;;5083419;28;19916;-87
2022/09/20 12:41:46;;;;;;;;;;;27.20;57.50;;;;;;5079596;28;19920;-87
2022/09/20 12:44:37;;;;;;;;;;;27.20;58.60;;;;;;5075290;28;20452;-86
2022/09/20 12:47:07;;;;;;;;;;;27.70;58.30;;;;;;5068664;28;19920;-89
2022/09/20 12:55:10;;;;;;;;;;;29.10;54.20;;;;;;5090502;28;20021;-92
2022/09/20 12:57:36;;;;;;;;;;;29.30;51.50;;;;;;5090575;28;19935;-92
2022/09/20 13:00:04;;;;;;;;;;;29.30;50.90;;;;;;5082685;28;19920;-86
2022/09/20 13:02:48;;;;;;;;;;;29.30;51.10;;;;;;5067829;28;19912;-92
2022/09/20 13:05:40;;;;;;;;;;;29.30;49.20;;;;;;5072186;28;19931;-89
2022/09/20 13:08:12;;;;;;;;;;;29.10;50.60;;;;;;5065007;28;19916;-88
2022/09/20 13:10:44;;;;;;;;;;;29.10;51.20;;;;;;5069716;28;19920;-90
2022/09/20 13:13:40;;;;;;;;;;;29.00;50.00;;;;;;5067152;28;19913;-92
2022/09/20 13:16:05;;;;;;;;;;;28.90;50.80;;;;;;5034623;28;20015;-89
2022/09/20 13:18:33;;;;;;;;;;;28.70;51.60;;;;;;5071848;28;19947;-92
2022/09/20 13:21:05;;;;;;;;;;;28.50;51.60;;;;;;5071993;28;19966;-91
2022/09/20 13:23:31;;;;;;;;;;;28.10;52.60;;;;;;5067503;28;19916;-86
2022/09/20 13:25:57;;;;;;;;;;;27.40;53.90;;;;;;5083459;28;19920;-87
2022/09/20 13:28:31;;;;;;;;;;;26.80;55.00;;;;;;5068794;28;19920;-87
2022/09/20 13:31:16;;;;;;;;;;;26.20;55.80;;;;;;5080072;28;20406;-87
2022/09/20 13:33:41;;;;;;;;;;;25.70;56.40;;;;;;5087334;28;19937;-87
2022/09/20 13:36:07;;;;;;;;;;;25.20;57.50;;;;;;5086811;28;19932;-86
2022/09/20 13:38:33;;;;;;;;;;;24.80;58.00;;;;;;5087279;28;20015;-87
2022/09/20 13:41:05;;;;;;;;;;;24.50;58.40;;;;;;5075208;28;19921;-92
2022/09/20 13:43:34;;;;;;;;;;;24.20;59.90;;;;;;5078556;28;20377;-92
2022/09/20 13:46:10;;;;;;;;;;;24.00;59.50;;;;;;5088880;28;19920;-91
2022/09/20 13:48:35;;;;;;;;;;;23.80;60.40;;;;;;5089621;28;19923;-92
2022/09/20 13:51:01;;;;;;;;;;;23.70;60.30;;;;;;5088476;28;19916;-86
2022/09/20 13:53:29;;;;;;;;;;;23.70;61.10;;;;;;5086957;28;19962;-88
2022/09/20 13:55:58;;;;;;;;;;;23.80;61.50;;;;;;5087101;28;19920;-88
2022/09/20 13:58:27;;;;;;;;;;;23.90;61.60;;;;;;5089795;28;19919;-90
2022/09/20 14:00:53;;;;;;;;;;;24.00;59.20;;;;;;5087283;28;19920;-87
2022/09/20 14:03:19;;;;;;;;;;;23.80;53.30;;;;;;5088742;28;19916;-91
2022/09/20 14:05:50;;;;;;;;;;;23.60;53.20;;;;;;5089834;28;19924;-89
2022/09/20 14:08:26;;;;;;;;;;;23.50;54.50;;;;;;5094133;28;19938;-88
2022/09/20 14:11:05;;;;;;;;;;;23.40;55.90;;;;;;5086807;28;19916;-92
2022/09/20 14:13:35;;;;;;;;;;;23.30;54.10;;;;;;5088516;28;19947;-90
2022/09/20 14:16:00;;;;;;;;;;;23.30;54.80;;;;;;5087246;28;19920;-89
2022/09/20 14:18:26;;;;;;;;;;;23.40;55.60;;;;;;5088321;28;19919;-92
2022/09/20 14:20:54;;;;;;;;;;;23.50;54.30;;;;;;5068002;28;19928;-89
2022/09/20 14:23:20;;;;;;;;;;;23.70;54.40;;;;;;5068536;28;20327;-90
2022/09/20 14:26:04;;;;;;;;;;;23.80;52.90;;;;;;5068266;28;20593;-88
2022/09/20 14:28:29;;;;;;;;;;;23.80;52.90;;;;;;5068104;28;20020;-89
2022/09/20 14:31:03;;;;;;;;;;;23.90;52.70;;;;;;5067995;28;20027;-89
2022/09/20 14:33:28;;;;;;;;;;;24.00;53.20;;;;;;5067538;28;20381;-89
2022/09/20 14:35:54;;;;;;;;;;;24.00;51.60;;;;;;5067728;28;19955;-91
2022/09/20 14:38:24;;;;;;;;;;;24.00;53.20;;;;;;5068188;28;19999;-88
2022/09/20 14:40:50;;;;;;;;;;;23.90;53.50;;;;;;5076458;28;19920;-86
2022/09/20 14:43:22;;;;;;;;;;;23.90;54.70;;;;;;5087749;28;19965;-88
2022/09/20 14:45:52;;;;;;;;;;;23.90;51.10;;;;;;5086187;28;20027;-90
2022/09/20 14:48:18;;;;;;;;;;;23.70;51.00;;;;;;5086869;28;19942;-89
2022/09/20 14:50:44;;;;;;;;;;;23.60;51.10;;;;;;5089315;28;19920;-89
2022/09/20 14:53:09;;;;;;;;;;;23.50;51.50;;;;;;5091180;28;20426;-87
2022/09/20 14:55:36;;;;;;;;;;;23.40;51.80;;;;;;5091826;28;19927;-87
2022/09/20 14:58:05;;;;;;;;;;;23.30;51.40;;;;;;5089738;28;19962;-92
2022/09/20 15:00:45;;;;;;;;;;;23.30;51.40;;;;;;5091519;28;19953;-89